Time;durP1;ratioP1;P1;durP2;ratioP2;P2;SDS_P1;SDS_P2;PMS_P1;PMS_P2;Temp;Humidity;BMP_temperature;BMP_pressure;BME280_temperature;BME280_humidity;BME280_pressure;Samples;Min_cycle;Max_cycle;Signal;HPM_P1;HPM_P2
2024/01/19 00:01:27;;;;;;;0.98;0.35;;;-0.70;99.90;;;;;;5008196;28;20033;-76
2024/01/19 00:03:52;;;;;;;1.75;1.02;;;-0.70;99.90;;;;;;5007200;28;20696;-75
2024/01/19 00:06:18;;;;;;;1.02;0.60;;;-0.70;99.90;;;;;;5023710;28;20037;-76
2024/01/19 00:08:44;;;;;;;22.88;1.35;;;-0.70;99.90;;;;;;5040588;28;20049;-76
2024/01/19 00:11:14;;;;;;;2.92;0.80;;;-0.80;99.90;;;;;;5006772;28;20072;-76
2024/01/19 00:13:41;;;;;;;0.80;0.77;;;-0.80;99.90;;;;;;5024790;28;20084;-76
2024/01/19 00:16:07;;;;;;;1.02;0.77;;;-0.90;99.90;;;;;;5023214;28;20049;-76
2024/01/19 00:18:32;;;;;;;7.10;0.73;;;-1.00;99.90;;;;;;5007698;28;20053;-76
2024/01/19 00:20:58;;;;;;;4.22;1.35;;;-1.00;99.90;;;;;;5023858;28;20519;-76
2024/01/19 00:23:23;;;;;;;3.50;0.60;;;-1.10;99.90;;;;;;5023442;28;20050;-76
2024/01/19 00:25:49;;;;;;;1.00;0.85;;;-1.20;99.90;;;;;;5023172;28;20605;-76
2024/01/19 00:28:15;;;;;;;1.73;1.00;;;-1.20;99.90;;;;;;5015840;28;20035;-76
2024/01/19 00:30:41;;;;;;;5.50;0.55;;;-1.30;99.90;;;;;;5020884;28;20049;-76
2024/01/19 00:33:06;;;;;;;25.98;2.13;;;-1.30;99.90;;;;;;5006136;28;20060;-76
2024/01/19 00:35:32;;;;;;;0.75;0.47;;;-1.40;99.90;;;;;;5017481;28;20056;-76
2024/01/19 00:37:58;;;;;;;1.13;1.05;;;-1.30;99.90;;;;;;5000744;28;20101;-77
2024/01/19 00:40:24;;;;;;;8.38;1.27;;;-1.40;99.90;;;;;;5032087;28;20037;-77
2024/01/19 00:42:50;;;;;;;0.70;0.70;;;-1.30;99.90;;;;;;5013902;28;20042;-76
2024/01/19 00:45:16;;;;;;;3.50;0.82;;;-1.30;99.90;;;;;;5002138;28;20041;-76
2024/01/19 00:47:41;;;;;;;1.52;0.60;;;-1.30;99.90;;;;;;4994454;28;20050;-76
2024/01/19 00:50:08;;;;;;;0.98;0.43;;;-1.30;99.90;;;;;;4997500;28;20033;-77
2024/01/19 00:52:34;;;;;;;1.48;0.65;;;-1.20;99.90;;;;;;5042113;28;20088;-76
2024/01/19 00:55:00;;;;;;;3.35;1.27;;;-1.20;99.90;;;;;;5009543;28;20687;-76
2024/01/19 00:57:26;;;;;;;0.45;0.45;;;-1.20;99.90;;;;;;5016273;28;20890;-76
2024/01/19 00:59:52;;;;;;;0.50;0.50;;;-1.30;99.90;;;;;;5031917;28;20068;-76
2024/01/19 01:02:19;;;;;;;0.65;0.57;;;-1.30;99.90;;;;;;5016187;28;20038;-77
2024/01/19 01:04:45;;;;;;;0.60;0.60;;;-1.30;99.90;;;;;;4985227;28;20073;-76
2024/01/19 01:07:10;;;;;;;1.48;1.38;;;-1.30;99.90;;;;;;4998650;28;20064;-76
2024/01/19 01:09:36;;;;;;;0.93;0.60;;;-1.30;99.90;;;;;;5001360;28;20109;-77
2024/01/19 01:12:02;;;;;;;2.35;1.15;;;-1.30;99.90;;;;;;4978447;28;20095;-77
2024/01/19 01:14:28;;;;;;;7.00;1.55;;;-1.40;99.90;;;;;;5005999;28;20554;-76
2024/01/19 01:16:54;;;;;;;3.25;1.00;;;-1.40;99.90;;;;;;5006366;28;20080;-77
2024/01/19 01:19:19;;;;;;;1.35;0.90;;;-1.40;99.90;;;;;;5023455;28;20053;-77
2024/01/19 01:21:45;;;;;;;3.85;0.98;;;-1.40;99.90;;;;;;5001768;28;20049;-77
2024/01/19 01:24:11;;;;;;;2.80;1.20;;;-1.40;99.90;;;;;;4999046;28;20061;-77
2024/01/19 01:26:37;;;;;;;1.38;0.68;;;-1.40;99.90;;;;;;4989106;28;20049;-77
2024/01/19 01:29:02;;;;;;;0.68;0.38;;;-1.30;99.90;;;;;;4998950;28;20412;-77
2024/01/19 01:31:28;;;;;;;1.33;0.70;;;-1.40;99.90;;;;;;5006463;28;20057;-77
2024/01/19 01:33:54;;;;;;;0.47;0.47;;;-1.30;99.90;;;;;;5032337;28;20053;-76
2024/01/19 01:36:19;;;;;;;0.55;0.40;;;-1.30;99.90;;;;;;4998312;28;20113;-77
2024/01/19 01:38:45;;;;;;;0.47;0.47;;;-1.20;99.90;;;;;;5039423;28;20041;-77
2024/01/19 01:41:11;;;;;;;1.25;0.82;;;-1.20;99.90;;;;;;5021738;28;20045;-77
2024/01/19 01:43:36;;;;;;;2.92;0.60;;;-1.20;99.90;;;;;;5039297;28;20385;-76
2024/01/19 01:46:02;;;;;;;0.88;0.75;;;-1.20;99.90;;;;;;5001494;28;20046;-76
2024/01/19 01:48:28;;;;;;;0.95;0.90;;;-1.20;99.90;;;;;;5018010;28;20041;-77
2024/01/19 01:50:56;;;;;;;1.55;0.90;;;-1.10;99.90;;;;;;5005870;28;20037;-77
2024/01/19 01:53:23;;;;;;;1.02;0.88;;;-1.00;99.90;;;;;;5021740;28;20044;-76
2024/01/19 01:55:49;;;;;;;1.05;0.52;;;-1.00;99.90;;;;;;5018713;28;20095;-77
2024/01/19 01:58:16;;;;;;;0.55;0.55;;;-0.90;99.90;;;;;;5000973;28;20045;-77
2024/01/19 02:00:43;;;;;;;2.15;0.90;;;-0.80;99.90;;;;;;5023095;28;20048;-76
2024/01/19 02:03:09;;;;;;;0.82;0.32;;;-0.60;99.90;;;;;;5020729;28;20101;-77
2024/01/19 02:05:35;;;;;;;0.80;0.73;;;-0.50;99.90;;;;;;5004378;28;20049;-77
2024/01/19 02:08:01;;;;;;;11.48;0.60;;;-0.40;99.90;;;;;;5005210;28;20041;-76
2024/01/19 02:10:27;;;;;;;0.32;0.25;;;-0.40;99.90;;;;;;5021269;28;20056;-77
2024/01/19 02:12:53;;;;;;;1.95;1.15;;;-0.30;99.90;;;;;;5022012;28;20060;-76
2024/01/19 02:15:21;;;;;;;0.30;0.30;;;-0.40;99.90;;;;;;5001186;28;20041;-76
2024/01/19 02:17:50;;;;;;;1.85;0.82;;;-0.50;99.90;;;;;;5020308;28;20336;-76
2024/01/19 02:20:17;;;;;;;1.58;0.65;;;-0.50;99.90;;;;;;5020605;28;20135;-77
2024/01/19 02:22:44;;;;;;;0.93;0.82;;;-0.50;99.90;;;;;;5038419;28;20482;-77
2024/01/19 02:25:11;;;;;;;0.55;0.55;;;-0.60;99.90;;;;;;5005575;28;20416;-77
2024/01/19 02:27:37;;;;;;;1.67;1.38;;;-0.70;99.90;;;;;;5016839;28;20057;-77
2024/01/19 02:30:04;;;;;;;3.17;0.40;;;-0.70;99.90;;;;;;5019737;28;20079;-77
2024/01/19 02:32:29;;;;;;;8.48;0.60;;;-0.80;99.90;;;;;;4983234;28;20042;-77
2024/01/19 02:34:55;;;;;;;0.55;0.30;;;-0.80;99.90;;;;;;4995751;28;20045;-77
2024/01/19 02:37:23;;;;;;;0.93;0.80;;;-0.80;99.90;;;;;;5033669;28;20096;-77
2024/01/19 02:39:49;;;;;;;10.18;1.33;;;-0.90;99.90;;;;;;5001504;28;20045;-77
2024/01/19 02:42:15;;;;;;;1.05;0.90;;;-0.90;99.90;;;;;;5014226;28;20103;-77
2024/01/19 02:44:41;;;;;;;1.90;1.42;;;-0.80;99.90;;;;;;4999379;28;20046;-77
2024/01/19 02:47:06;;;;;;;1.25;0.90;;;-0.80;99.90;;;;;;5031062;28;20037;-77
2024/01/19 02:49:32;;;;;;;4.63;0.47;;;-0.70;99.90;;;;;;5021504;23;20052;-77
2024/01/19 02:51:58;;;;;;;1.15;0.70;;;-0.60;99.90;;;;;;5053905;28;20436;-76
2024/01/19 02:54:23;;;;;;;0.63;0.55;;;-0.50;99.90;;;;;;5059281;28;20057;-77
2024/01/19 02:56:49;;;;;;;0.60;0.40;;;-0.50;99.90;;;;;;5060290;28;20315;-76
2024/01/19 02:59:15;;;;;;;5.50;0.88;;;-0.40;99.90;;;;;;5066555;28;20053;-77
2024/01/19 03:01:40;;;;;;;1.90;0.95;;;-0.30;99.90;;;;;;5056528;28;20041;-77
2024/01/19 03:04:06;;;;;;;1.05;0.70;;;-0.20;99.90;;;;;;5041357;28;20151;-76
2024/01/19 03:06:32;;;;;;;1.75;0.68;;;-0.20;99.90;;;;;;5056709;28;20068;-76
2024/01/19 03:08:57;;;;;;;1.60;0.52;;;-0.20;99.90;;;;;;5074430;28;20059;-77
2024/01/19 03:11:23;;;;;;;0.43;0.43;;;-0.20;99.90;;;;;;5042322;28;20492;-76
2024/01/19 03:13:51;;;;;;;0.52;0.50;;;-0.30;99.90;;;;;;5074295;28;20057;-76
2024/01/19 03:16:17;;;;;;;1.60;0.35;;;-0.30;99.90;;;;;;5057543;28;20492;-76
2024/01/19 03:18:43;;;;;;;0.65;0.60;;;-0.30;99.90;;;;;;5053568;28;20040;-76
2024/01/19 03:21:10;;;;;;;3.58;0.70;;;-0.40;99.90;;;;;;5057394;28;20112;-76
2024/01/19 03:23:36;;;;;;;0.43;0.28;;;-0.40;99.90;;;;;;5028724;28;20096;-76
2024/01/19 03:26:02;;;;;;;0.85;0.77;;;-0.40;99.90;;;;;;5060673;28;20099;-76
2024/01/19 03:28:27;;;;;;;0.47;0.40;;;-0.50;99.90;;;;;;5060497;28;20033;-76
2024/01/19 03:30:53;;;;;;;0.20;0.20;;;-0.50;99.90;;;;;;5058743;28;20045;-76
2024/01/19 03:33:19;;;;;;;0.20;0.20;;;-0.50;99.90;;;;;;5061150;28;20041;-76
2024/01/19 03:35:45;;;;;;;1.27;0.20;;;-0.40;99.90;;;;;;5058735;28;20041;-76
2024/01/19 03:38:11;;;;;;;0.15;0.15;;;-0.40;99.90;;;;;;5070163;28;20040;-76
2024/01/19 03:40:37;;;;;;;0.10;0.10;;;-0.40;99.90;;;;;;5059084;28;20063;-76
2024/01/19 03:43:03;;;;;;;2.30;0.55;;;-0.30;99.90;;;;;;5059358;28;20178;-76
2024/01/19 03:45:29;;;;;;;0.68;0.52;;;-0.40;99.90;;;;;;5059498;28;20048;-77
2024/01/19 03:47:55;;;;;;;1.33;0.73;;;-0.40;99.90;;;;;;5057560;28;20056;-77
2024/01/19 03:50:22;;;;;;;7.38;0.77;;;-0.50;99.90;;;;;;5058742;28;20099;-76
2024/01/19 03:52:48;;;;;;;0.65;0.55;;;-0.50;99.90;;;;;;5057771;28;20071;-77
2024/01/19 03:55:15;;;;;;;1.85;0.40;;;-0.60;99.90;;;;;;5053044;28;20120;-76
2024/01/19 03:57:40;;;;;;;1.35;0.30;;;-0.60;99.90;;;;;;5069151;28;20087;-76
2024/01/19 04:00:07;;;;;;;4.28;1.65;;;-0.50;99.90;;;;;;5058641;28;20050;-76
2024/01/19 04:02:32;;;;;;;0.20;0.20;;;-0.60;99.90;;;;;;5086447;28;20051;-76
2024/01/19 04:04:58;;;;;;;0.05;0.05;;;-0.60;99.90;;;;;;5066245;28;20041;-77
2024/01/19 04:07:24;;;;;;;0.10;0.10;;;-0.60;99.90;;;;;;5072210;28;20040;-76
2024/01/19 04:09:49;;;;;;;0.10;0.10;;;-0.70;99.90;;;;;;5051864;28;20049;-76
2024/01/19 04:12:17;;;;;;;0.00;0.00;;;-0.80;99.90;;;;;;5082699;28;20040;-76
2024/01/19 04:14:44;;;;;;;0.20;0.20;;;-0.90;99.90;;;;;;5076558;28;20389;-76
2024/01/19 04:17:10;;;;;;;0.40;0.25;;;-0.90;99.90;;;;;;5083664;28;20092;-77
2024/01/19 04:19:37;;;;;;;2.92;0.20;;;-0.90;99.90;;;;;;5076493;28;20046;-77
2024/01/19 04:22:03;;;;;;;0.10;0.10;;;-1.00;99.90;;;;;;5072594;28;20379;-76
2024/01/19 04:24:29;;;;;;;0.20;0.20;;;-1.00;99.90;;;;;;5076441;28;20037;-77
2024/01/19 04:26:55;;;;;;;0.10;0.10;;;-1.00;99.90;;;;;;5056138;28;20042;-77
2024/01/19 04:29:21;;;;;;;1.55;0.80;;;-0.90;99.90;;;;;;5058727;28;20392;-77
2024/01/19 04:31:46;;;;;;;0.38;0.38;;;-0.90;99.90;;;;;;5057070;28;20048;-77
2024/01/19 04:34:12;;;;;;;1.35;0.52;;;-0.90;99.90;;;;;;5042319;28;20053;-77
2024/01/19 04:36:38;;;;;;;4.28;0.63;;;-0.90;99.90;;;;;;5058475;28;20696;-77
2024/01/19 04:39:04;;;;;;;0.50;0.40;;;-0.80;99.90;;;;;;5044562;28;20040;-77
2024/01/19 04:41:31;;;;;;;0.65;0.40;;;-0.80;99.90;;;;;;5060796;28;20041;-77
2024/01/19 04:43:56;;;;;;;0.98;0.22;;;-0.80;99.90;;;;;;5042783;28;20056;-77
2024/01/19 04:46:22;;;;;;;0.90;0.50;;;-0.70;99.90;;;;;;5044478;28;20033;-77
2024/01/19 04:48:48;;;;;;;0.38;0.32;;;-0.80;99.90;;;;;;5041054;28;20076;-77
2024/01/19 04:51:13;;;;;;;0.15;0.15;;;-0.70;99.90;;;;;;5074917;28;20455;-77
2024/01/19 04:53:39;;;;;;;1.33;0.30;;;-0.60;99.90;;;;;;5058762;28;20049;-77
2024/01/19 04:56:06;;;;;;;0.30;0.30;;;-0.50;99.90;;;;;;5058895;28;20128;-77
2024/01/19 04:58:36;;;;;;;0.30;0.30;;;-0.40;99.90;;;;;;5055842;28;20907;-77
2024/01/19 05:01:02;;;;;;;3.40;0.95;;;-0.40;99.90;;;;;;5059913;28;20174;-77
2024/01/19 05:03:27;;;;;;;1.60;0.22;;;-0.30;99.90;;;;;;5062870;28;20041;-77
2024/01/19 05:05:53;;;;;;;0.43;0.43;;;-0.20;99.90;;;;;;5036310;28;20792;-77
2024/01/19 05:08:19;;;;;;;0.40;0.20;;;-0.20;99.90;;;;;;5066605;28;20071;-77
2024/01/19 05:10:45;;;;;;;0.13;0.10;;;-0.20;99.90;;;;;;5060995;28;20045;-77
2024/01/19 05:13:10;;;;;;;0.60;0.55;;;-0.20;99.90;;;;;;5066899;28;20063;-77
2024/01/19 05:15:37;;;;;;;2.47;0.43;;;-0.30;99.90;;;;;;5066673;28;20067;-77
2024/01/19 05:18:03;;;;;;;5.32;0.60;;;-0.40;99.90;;;;;;5059901;28;20044;-77
2024/01/19 05:20:29;;;;;;;0.17;0.05;;;-0.40;99.90;;;;;;5063214;28;20037;-77
2024/01/19 05:22:55;;;;;;;0.22;0.22;;;-0.40;99.90;;;;;;5061179;28;20063;-77
2024/01/19 05:25:21;;;;;;;5.03;0.50;;;-0.50;99.90;;;;;;5057347;28;20089;-77
2024/01/19 05:27:51;;;;;;;0.20;0.10;;;-0.50;99.90;;;;;;5058267;28;20033;-77
2024/01/19 05:30:17;;;;;;;0.17;0.17;;;-0.50;99.90;;;;;;5056655;28;20055;-77
2024/01/19 05:32:42;;;;;;;0.20;0.20;;;-0.60;99.90;;;;;;5073404;28;20075;-77
2024/01/19 05:35:08;;;;;;;1.58;0.30;;;-0.60;99.90;;;;;;5021758;28;20061;-77
2024/01/19 05:37:35;;;;;;;0.00;0.00;;;-0.60;99.90;;;;;;5042257;28;20059;-77
2024/01/19 05:40:00;;;;;;;0.95;0.20;;;-0.70;99.90;;;;;;5056475;28;20045;-77
2024/01/19 05:42:26;;;;;;;0.03;0.03;;;-0.70;99.90;;;;;;5056892;28;20040;-77
2024/01/19 05:44:52;;;;;;;0.20;0.20;;;-0.80;99.90;;;;;;5074992;28;20045;-77
2024/01/19 05:47:17;;;;;;;1.27;0.43;;;-0.80;99.90;;;;;;5053564;28;20049;-77
2024/01/19 05:49:43;;;;;;;0.55;0.38;;;-0.80;99.90;;;;;;5058731;28;20049;-77
2024/01/19 05:52:09;;;;;;;0.55;0.52;;;-1.00;99.90;;;;;;5037734;28;20105;-77
2024/01/19 05:54:35;;;;;;;0.10;0.10;;;-0.90;99.90;;;;;;5057662;28;20519;-77
2024/01/19 05:57:00;;;;;;;5.05;0.40;;;-0.90;99.90;;;;;;5049189;28;20040;-77
2024/01/19 05:59:27;;;;;;;0.98;0.98;;;-0.90;99.90;;;;;;5065989;28;20108;-77
2024/01/19 06:01:52;;;;;;;0.03;0.03;;;-0.90;99.90;;;;;;5081820;28;20055;-77
2024/01/19 06:04:18;;;;;;;0.75;0.60;;;-0.90;99.90;;;;;;5097978;28;20068;-77
2024/01/19 06:06:43;;;;;;;2.88;0.63;;;-1.00;99.90;;;;;;5062577;28;20091;-77
2024/01/19 06:09:10;;;;;;;0.35;0.22;;;-1.00;99.90;;;;;;5075249;28;20048;-77
2024/01/19 06:11:36;;;;;;;0.95;0.10;;;-1.00;99.90;;;;;;5082626;28;20045;-78
2024/01/19 06:14:02;;;;;;;1.77;0.75;;;-1.00;99.90;;;;;;5060463;28;20049;-77
2024/01/19 06:16:29;;;;;;;0.43;0.43;;;-1.00;99.90;;;;;;5074175;28;20048;-77
2024/01/19 06:18:55;;;;;;;0.17;0.15;;;-1.00;99.90;;;;;;5052015;28;20037;-78
2024/01/19 06:21:20;;;;;;;0.47;0.47;;;-1.00;99.90;;;;;;5076463;28;20377;-78
2024/01/19 06:23:46;;;;;;;0.30;0.20;;;-1.10;99.90;;;;;;5070637;28;20550;-77
2024/01/19 06:26:12;;;;;;;0.40;0.40;;;-1.10;99.90;;;;;;5053908;28;20071;-77
2024/01/19 06:28:38;;;;;;;0.30;0.30;;;-1.00;99.90;;;;;;5081919;28;20055;-78
2024/01/19 06:31:05;;;;;;;1.65;0.30;;;-1.10;99.90;;;;;;5053580;28;20041;-78
2024/01/19 06:33:31;;;;;;;3.30;0.38;;;-1.00;99.90;;;;;;5039916;28;20033;-77
2024/01/19 06:35:57;;;;;;;0.10;0.10;;;-1.10;99.90;;;;;;5054907;28;20047;-77
2024/01/19 06:38:23;;;;;;;0.52;0.30;;;-1.00;99.90;;;;;;5059850;28;20060;-77
2024/01/19 06:40:49;;;;;;;5.47;0.73;;;-1.00;99.90;;;;;;5041306;28;20116;-77
2024/01/19 06:43:15;;;;;;;0.30;0.30;;;-1.00;99.90;;;;;;5072077;28;20060;-77
2024/01/19 06:45:41;;;;;;;0.77;0.30;;;-1.00;99.90;;;;;;5073329;28;20041;-77
2024/01/19 06:48:07;;;;;;;0.20;0.20;;;-0.90;99.90;;;;;;5056380;28;20053;-77
2024/01/19 06:50:33;;;;;;;0.38;0.38;;;-0.90;99.90;;;;;;5060247;28;20084;-77
2024/01/19 06:53:00;;;;;;;1.15;0.28;;;-0.90;99.90;;;;;;5071425;28;20049;-77
2024/01/19 06:55:27;;;;;;;0.20;0.20;;;-0.90;99.90;;;;;;5056620;28;20045;-77
2024/01/19 06:57:53;;;;;;;0.55;0.30;;;-0.90;99.90;;;;;;5060045;28;20037;-78
2024/01/19 07:00:19;;;;;;;0.63;0.63;;;-0.90;99.90;;;;;;5062846;28;20116;-77
2024/01/19 07:02:45;;;;;;;3.15;0.50;;;-0.90;99.90;;;;;;5061461;28;20041;-77
2024/01/19 07:05:11;;;;;;;0.28;0.28;;;-0.90;99.90;;;;;;5058952;28;20033;-77
2024/01/19 07:07:37;;;;;;;0.25;0.20;;;-0.90;99.90;;;;;;5056028;28;20381;-78
2024/01/19 07:10:03;;;;;;;0.55;0.20;;;-0.80;99.90;;;;;;5037390;28;20128;-78
2024/01/19 07:12:29;;;;;;;1.48;0.60;;;-0.80;99.90;;;;;;5029009;28;20046;-78
2024/01/19 07:14:55;;;;;;;1.77;0.20;;;-0.70;99.90;;;;;;5044057;28;20124;-77
2024/01/19 07:17:20;;;;;;;3.97;0.38;;;-0.60;99.90;;;;;;5043637;28;20069;-78
2024/01/19 07:19:46;;;;;;;0.68;0.43;;;-0.60;99.90;;;;;;5042256;28;20065;-77
2024/01/19 07:22:12;;;;;;;3.90;0.43;;;-0.60;99.90;;;;;;5043074;28;20045;-78
2024/01/19 07:24:38;;;;;;;0.17;0.17;;;-0.50;99.90;;;;;;5059681;28;20391;-77
2024/01/19 07:27:04;;;;;;;1.67;0.50;;;-0.50;99.90;;;;;;5043650;28;20142;-77
2024/01/19 07:29:33;;;;;;;0.32;0.30;;;-0.50;99.90;;;;;;5062135;28;20045;-78
2024/01/19 07:31:59;;;;;;;7.10;0.52;;;-0.40;99.90;;;;;;5060726;28;20032;-77
2024/01/19 07:34:25;;;;;;;0.95;0.85;;;-0.40;99.90;;;;;;5043758;28;20041;-77
2024/01/19 07:36:52;;;;;;;0.47;0.47;;;-0.40;99.90;;;;;;5043050;28;20546;-78
2024/01/19 07:39:23;;;;;;;0.65;0.45;;;-0.30;99.90;;;;;;5066312;28;20098;-77
2024/01/19 07:41:51;;;;;;;1.70;0.60;;;-0.30;99.90;;;;;;5060242;28;20041;-77
2024/01/19 07:44:17;;;;;;;0.35;0.35;;;-0.30;99.90;;;;;;5055560;28;20045;-78
2024/01/19 07:46:43;;;;;;;1.30;0.68;;;-0.40;99.90;;;;;;5059124;28;20045;-77
2024/01/19 07:49:08;;;;;;;1.42;0.40;;;-0.50;99.90;;;;;;5043507;28;20056;-77
2024/01/19 07:51:34;;;;;;;0.52;0.35;;;-0.50;99.90;;;;;;5043161;28;20060;-77
2024/01/19 07:54:00;;;;;;;1.27;0.50;;;-0.50;99.90;;;;;;5044224;28;20049;-77
2024/01/19 07:56:25;;;;;;;0.68;0.50;;;-0.60;99.90;;;;;;5057583;28;20534;-77
2024/01/19 07:58:51;;;;;;;0.93;0.70;;;-0.60;99.90;;;;;;5060872;28;20132;-77
2024/01/19 08:01:17;;;;;;;0.57;0.52;;;-0.70;99.90;;;;;;5058520;28;20033;-77
2024/01/19 08:03:43;;;;;;;0.20;0.20;;;-0.70;99.90;;;;;;5060706;28;20040;-77
2024/01/19 08:06:09;;;;;;;5.38;0.63;;;-0.70;99.90;;;;;;5047184;28;20446;-77
2024/01/19 08:08:35;;;;;;;1.55;0.88;;;-0.70;99.90;;;;;;5055072;28;20079;-78
2024/01/19 08:11:01;;;;;;;2.03;0.50;;;-0.70;99.90;;;;;;5072969;28;20029;-78
2024/01/19 08:13:26;;;;;;;4.25;0.32;;;-0.60;99.90;;;;;;5041280;28;20051;-78
2024/01/19 08:15:52;;;;;;;2.95;0.90;;;-0.60;99.90;;;;;;5036766;28;20045;-77
2024/01/19 08:18:17;;;;;;;1.45;1.08;;;-0.60;99.90;;;;;;5057730;28;20052;-77
2024/01/19 08:20:43;;;;;;;0.88;0.57;;;-0.50;99.90;;;;;;5058630;28;20056;-77
2024/01/19 08:23:09;;;;;;;4.07;0.52;;;-0.40;99.90;;;;;;5041314;28;20083;-77
2024/01/19 08:25:35;;;;;;;0.90;0.82;;;-0.30;99.90;;;;;;5041785;28;20056;-77
2024/01/19 08:28:00;;;;;;;0.90;0.43;;;-0.20;99.90;;;;;;5042006;28;20039;-77
2024/01/19 08:30:26;;;;;;;0.85;0.38;;;-0.10;99.90;;;;;;5057309;28;20049;-77
2024/01/19 08:32:52;;;;;;;0.20;0.20;;;0.00;99.90;;;;;;5046338;28;20044;-77
2024/01/19 08:35:18;;;;;;;0.22;0.20;;;0.00;99.90;;;;;;5044489;28;20045;-77
2024/01/19 08:37:44;;;;;;;1.33;0.55;;;0.00;99.90;;;;;;5050810;28;20067;-77
2024/01/19 08:40:13;;;;;;;0.20;0.20;;;0.00;99.90;;;;;;5066339;28;20139;-77
2024/01/19 08:42:39;;;;;;;1.13;0.20;;;0.00;99.90;;;;;;5070257;28;20056;-76
2024/01/19 08:45:05;;;;;;;2.75;0.73;;;0.00;99.90;;;;;;5076156;28;20400;-77
2024/01/19 08:47:31;;;;;;;1.73;0.85;;;0.00;99.90;;;;;;5070957;28;20069;-77
2024/01/19 08:49:59;;;;;;;2.35;1.27;;;0.10;99.90;;;;;;5044064;28;20053;-76
2024/01/19 08:52:27;;;;;;;0.30;0.25;;;0.10;99.90;;;;;;5077485;28;20037;-77
2024/01/19 08:54:53;;;;;;;3.53;0.57;;;0.10;99.90;;;;;;5063443;28;20072;-77
2024/01/19 08:57:18;;;;;;;3.08;0.63;;;0.20;99.90;;;;;;5051047;28;20029;-77
2024/01/19 08:59:45;;;;;;;0.68;0.68;;;0.20;99.90;;;;;;5073027;28;20371;-76
2024/01/19 09:02:11;;;;;;;0.40;0.40;;;0.20;99.90;;;;;;5064299;28;20100;-75
2024/01/19 09:04:38;;;;;;;0.52;0.52;;;0.20;99.90;;;;;;5072023;28;20044;-81
2024/01/19 09:07:04;;;;;;;5.82;1.13;;;0.30;99.90;;;;;;5079995;28;20059;-80
2024/01/19 09:09:30;;;;;;;1.25;0.73;;;0.40;99.90;;;;;;5049424;28;20393;-81
2024/01/19 09:11:56;;;;;;;8.07;0.68;;;0.40;99.90;;;;;;5053871;28;20045;-81
2024/01/19 09:14:23;;;;;;;5.03;1.60;;;0.60;99.90;;;;;;5046477;28;20430;-80
2024/01/19 09:16:48;;;;;;;4.90;1.23;;;0.80;99.90;;;;;;5083368;28;20078;-80
2024/01/19 09:19:15;;;;;;;0.60;0.57;;;0.90;99.90;;;;;;5044067;28;20034;-80
2024/01/19 09:21:44;;;;;;;2.95;0.40;;;1.00;99.90;;;;;;5046222;28;20059;-80
2024/01/19 09:24:13;;;;;;;1.75;0.88;;;1.20;99.90;;;;;;5060632;28;20190;-81
2024/01/19 09:26:39;;;;;;;9.50;2.40;;;1.40;99.90;;;;;;5063722;28;20333;-80
2024/01/19 09:29:08;;;;;;;1.10;1.00;;;1.40;99.90;;;;;;5042819;28;20045;-81
2024/01/19 09:31:40;;;;;;;0.57;0.57;;;1.50;99.90;;;;;;5054787;28;20044;-80
2024/01/19 09:34:05;;;;;;;4.82;1.08;;;1.50;99.90;;;;;;5057593;28;20064;-80
2024/01/19 09:36:31;;;;;;;8.35;0.90;;;1.70;99.90;;;;;;5062428;28;20037;-80
2024/01/19 09:38:56;;;;;;;2.85;1.23;;;1.80;99.90;;;;;;5060022;28;20033;-81
2024/01/19 09:41:33;;;;;;;4.63;1.25;;;2.10;99.90;;;;;;5052961;28;20041;-80
2024/01/19 09:44:01;;;;;;;2.83;1.15;;;2.40;99.90;;;;;;5064777;28;20032;-80
2024/01/19 09:46:29;;;;;;;1.77;0.73;;;2.90;99.90;;;;;;5056499;28;20053;-81
2024/01/19 09:49:18;;;;;;;1.00;1.00;;;3.40;99.90;;;;;;5065751;28;20037;-87
2024/01/19 09:51:57;;;;;;;4.38;1.42;;;3.80;99.90;;;;;;5045840;28;20060;-81
2024/01/19 09:54:40;;;;;;;2.80;1.10;;;3.90;99.90;;;;;;5055106;28;20062;-81
2024/01/19 09:57:06;;;;;;;1.20;0.80;;;4.10;99.90;;;;;;5080461;28;20044;-81
2024/01/19 09:59:33;;;;;;;2.80;1.27;;;4.20;99.90;;;;;;5045302;28;20056;-80
2024/01/19 10:02:00;;;;;;;6.57;1.85;;;4.60;99.90;;;;;;5047008;28;20036;-80
2024/01/19 10:04:27;;;;;;;7.75;1.38;;;4.80;99.90;;;;;;5058795;28;20045;-80
2024/01/19 10:06:54;;;;;;;1.75;1.17;;;5.10;99.90;;;;;;5061194;28;20113;-80
2024/01/19 10:09:23;;;;;;;12.52;1.48;;;5.20;99.90;;;;;;5047670;28;20078;-80
2024/01/19 10:11:54;;;;;;;2.05;0.60;;;5.10;99.90;;;;;;5048179;28;20471;-80
2024/01/19 10:14:21;;;;;;;1.05;0.65;;;4.70;99.90;;;;;;5079562;28;20106;-80
2024/01/19 10:16:52;;;;;;;1.65;1.23;;;4.30;99.90;;;;;;5051089;28;20044;-80
2024/01/19 10:19:21;;;;;;;2.90;1.75;;;4.00;99.90;;;;;;5058714;28;20064;-80
2024/01/19 10:21:47;;;;;;;3.45;1.33;;;3.70;99.90;;;;;;5058640;28;20044;-80
2024/01/19 10:24:15;;;;;;;3.10;1.15;;;3.40;99.90;;;;;;5057874;28;20055;-79
2024/01/19 10:26:42;;;;;;;1.77;1.13;;;3.20;99.90;;;;;;5073601;28;20061;-80
2024/01/19 10:29:12;;;;;;;1.00;0.77;;;2.90;99.90;;;;;;5050352;28;20044;-79
2024/01/19 10:31:39;;;;;;;1.35;0.77;;;2.70;99.90;;;;;;5049583;28;20044;-80
2024/01/19 10:34:05;;;;;;;4.63;1.02;;;2.50;99.90;;;;;;5066269;28;20683;-80
2024/01/19 10:36:39;;;;;;;1.88;0.98;;;2.40;99.90;;;;;;5063786;28;20048;-79
2024/01/19 10:39:23;;;;;;;1.05;0.82;;;2.30;99.90;;;;;;5043542;28;20067;-79
2024/01/19 10:41:50;;;;;;;1.20;1.05;;;2.20;99.90;;;;;;5065568;28;20130;-79
2024/01/19 10:44:22;;;;;;;16.48;1.58;;;2.20;99.90;;;;;;5057537;28;20041;-79
2024/01/19 10:46:51;;;;;;;6.90;0.85;;;2.10;99.90;;;;;;5061988;28;20040;-79
2024/01/19 10:49:17;;;;;;;7.47;0.80;;;2.10;99.90;;;;;;5079816;28;20044;-79
2024/01/19 10:51:44;;;;;;;5.60;1.35;;;2.20;99.90;;;;;;5066695;28;20056;-79
2024/01/19 10:54:23;;;;;;;5.07;1.02;;;2.20;99.90;;;;;;5080165;28;20575;-79
2024/01/19 10:57:11;;;;;;;4.13;1.67;;;2.10;99.90;;;;;;5070422;28;20048;-79
2024/01/19 10:59:37;;;;;;;2.55;0.68;;;2.10;99.90;;;;;;5066549;28;20126;-83
2024/01/19 11:02:03;;;;;;;3.47;2.28;;;2.20;99.90;;;;;;5061408;28;20040;-75
2024/01/19 11:04:29;;;;;;;3.05;1.02;;;2.20;99.90;;;;;;5076056;28;20068;-75
2024/01/19 11:06:55;;;;;;;3.30;0.65;;;2.30;99.90;;;;;;5061192;28;20044;-75
2024/01/19 11:09:21;;;;;;;2.63;1.20;;;2.30;99.90;;;;;;5058780;28;20032;-75
2024/01/19 11:11:51;;;;;;;6.10;1.38;;;2.40;99.90;;;;;;5060881;28;20484;-75
2024/01/19 11:14:18;;;;;;;1.58;1.40;;;2.40;99.90;;;;;;5055103;28;20049;-75
2024/01/19 11:16:48;;;;;;;3.10;1.45;;;2.50;99.90;;;;;;5067746;28;20044;-75
2024/01/19 11:19:15;;;;;;;6.00;1.00;;;2.50;99.90;;;;;;5057216;28;20095;-75
2024/01/19 11:21:42;;;;;;;2.70;0.95;;;2.60;99.90;;;;;;5081278;28;20119;-75
2024/01/19 11:24:08;;;;;;;0.75;0.40;;;2.70;99.90;;;;;;5042128;28;20099;-75
2024/01/19 11:26:39;;;;;;;9.60;0.95;;;2.70;99.90;;;;;;5048642;28;20048;-75
2024/01/19 11:29:19;;;;;;;3.58;1.63;;;2.70;99.90;;;;;;5073619;28;20229;-75
2024/01/19 11:31:47;;;;;;;2.85;0.93;;;2.70;99.90;;;;;;5060218;28;20107;-76
2024/01/19 11:34:41;;;;;;;3.63;1.17;;;2.80;99.90;;;;;;5071824;28;20087;-76
2024/01/19 11:37:08;;;;;;;3.28;2.60;;;2.80;99.90;;;;;;5083406;28;20502;-76
2024/01/19 11:39:41;;;;;;;3.78;0.77;;;2.90;99.90;;;;;;5077045;28;20044;-76
2024/01/19 11:42:33;;;;;;;2.25;1.27;;;2.90;99.90;;;;;;5073400;28;20105;-76
2024/01/19 11:44:59;;;;;;;4.37;1.40;;;3.00;99.90;;;;;;5064179;28;20094;-76
2024/01/19 11:47:38;;;;;;;7.18;0.93;;;3.00;99.90;;;;;;5069068;28;20044;-76
2024/01/19 11:50:12;;;;;;;3.97;1.67;;;3.10;99.90;;;;;;5073413;28;20060;-76
2024/01/19 11:52:39;;;;;;;4.22;2.45;;;3.20;99.90;;;;;;5064450;28;20059;-76
2024/01/19 11:55:27;;;;;;;2.15;1.05;;;3.30;99.90;;;;;;5060017;28;20037;-76
2024/01/19 11:57:53;;;;;;;3.13;1.58;;;3.50;99.90;;;;;;5055248;28;20520;-76
2024/01/19 12:00:20;;;;;;;5.68;1.48;;;3.50;99.90;;;;;;5059801;28;20096;-77
2024/01/19 12:02:46;;;;;;;7.18;1.38;;;3.60;99.90;;;;;;5059139;28;20045;-76
2024/01/19 12:05:12;;;;;;;15.30;1.48;;;3.60;99.90;;;;;;5061512;28;20044;-77
2024/01/19 12:07:39;;;;;;;6.05;1.27;;;3.60;99.90;;;;;;5064364;28;20061;-76
2024/01/19 12:10:09;;;;;;;5.93;0.80;;;3.70;99.90;;;;;;5055839;28;20106;-77
2024/01/19 12:12:36;;;;;;;0.82;0.50;;;3.70;99.90;;;;;;5057619;28;20041;-76
2024/01/19 12:15:10;;;;;;;9.75;0.90;;;3.80;99.90;;;;;;5047481;28;20484;-77
2024/01/19 12:17:40;;;;;;;3.53;1.25;;;3.80;99.90;;;;;;5062463;28;20037;-77
2024/01/19 12:20:16;;;;;;;3.72;0.85;;;3.80;99.90;;;;;;5052277;28;20044;-76
2024/01/19 12:22:45;;;;;;;1.73;0.93;;;3.80;99.90;;;;;;5077767;28;20076;-76
2024/01/19 12:25:19;;;;;;;3.72;1.13;;;3.90;99.90;;;;;;5063560;28;20032;-77
2024/01/19 12:27:46;;;;;;;2.65;0.65;;;3.80;99.90;;;;;;5060237;28;20045;-76
2024/01/19 12:30:17;;;;;;;2.72;1.23;;;3.90;99.90;;;;;;5060185;28;20041;-77
2024/01/19 12:32:44;;;;;;;5.50;1.27;;;3.90;99.90;;;;;;5062379;28;20064;-77
2024/01/19 12:35:11;;;;;;;2.50;1.40;;;3.90;99.90;;;;;;5039658;28;20625;-77
2024/01/19 12:37:37;;;;;;;2.85;0.77;;;4.00;99.90;;;;;;5055233;28;20055;-76
2024/01/19 12:40:14;;;;;;;0.60;0.60;;;4.00;99.90;;;;;;5061162;28;20087;-76
2024/01/19 12:42:41;;;;;;;10.90;1.25;;;4.00;99.90;;;;;;5054670;28;20048;-76
2024/01/19 12:45:08;;;;;;;5.78;0.63;;;4.00;99.90;;;;;;5063317;28;20049;-76
2024/01/19 12:47:34;;;;;;;2.00;0.60;;;4.10;99.90;;;;;;5074170;28;20041;-76
2024/01/19 12:50:00;;;;;;;1.67;0.85;;;4.10;99.90;;;;;;5056358;28;20896;-76